createdAt,value
2023-02-24T00:02:05.631Z,2.68
2023-02-24T00:07:02.764Z,2.66
2023-02-24T00:12:05.821Z,2.58
2023-02-24T00:17:02.314Z,2.45
2023-02-24T00:21:59.847Z,2.32
2023-02-24T00:26:59.575Z,2.19
2023-02-24T00:32:00.995Z,2.18
2023-02-24T00:36:58.672Z,2.19
2023-02-24T00:42:04.686Z,2.10
2023-02-24T00:47:02.616Z,2.06
2023-02-24T00:51:59.896Z,2.12
2023-02-24T00:56:56.913Z,2.01
2023-02-24T01:01:54.638Z,2.01
2023-02-24T01:07:00.246Z,2.14
2023-02-24T01:12:16.212Z,2.11
2023-02-24T01:17:13.007Z,2.12
2023-02-24T01:22:09.987Z,2.14
2023-02-24T01:27:06.716Z,2.17
2023-02-24T01:32:03.194Z,2.19
2023-02-24T01:36:59.708Z,2.21
2023-02-24T01:41:59.923Z,2.20
2023-02-24T01:46:56.323Z,2.25
2023-02-24T01:51:58.114Z,2.26
2023-02-24T01:56:57.363Z,2.26
2023-02-24T02:02:04.409Z,2.26
2023-02-24T02:07:02.355Z,2.27
2023-02-24T02:11:58.812Z,2.28
2023-02-24T02:17:37.224Z,2.30
2023-02-24T02:22:45.472Z,2.29
2023-02-24T02:28:08.386Z,2.27
2023-02-24T02:34:05.582Z,2.26
2023-02-24T02:39:30.319Z,2.23
2023-02-24T02:44:40.288Z,2.18
2023-02-24T02:49:42.120Z,2.12
2023-02-24T02:55:00.570Z,2.09
2023-02-24T03:00:13.338Z,2.02
2023-02-24T03:05:11.786Z,2.04
2023-02-24T03:10:21.066Z,2.04
2023-02-24T03:15:21.052Z,1.96
2023-02-24T03:20:24.461Z,1.97
2023-02-24T03:25:25.109Z,1.91
2023-02-24T03:30:26.857Z,1.88
2023-02-24T03:35:27.649Z,1.79
2023-02-24T03:40:33.060Z,1.79
2023-02-24T03:45:29.581Z,1.71
2023-02-24T03:50:31.659Z,1.56
2023-02-24T03:55:49.978Z,1.49
2023-02-24T04:00:50.563Z,1.35
2023-02-24T04:06:12.257Z,1.27
2023-02-24T04:11:23.153Z,1.25
2023-02-24T04:16:29.189Z,1.20
2023-02-24T04:21:32.424Z,1.13
2023-02-24T04:26:29.535Z,1.06
2023-02-24T04:31:28.355Z,1.00
2023-02-24T04:36:24.841Z,0.95
2023-02-24T04:41:22.147Z,0.85
2023-02-24T04:46:23.288Z,0.80
2023-02-24T04:51:21.256Z,0.72
2023-02-24T04:56:18.677Z,0.66
2023-02-24T05:01:15.294Z,0.57
2023-02-24T05:06:15.969Z,0.55
2023-02-24T05:11:18.270Z,0.56
2023-02-24T05:16:17.279Z,0.70
2023-02-24T05:21:34.399Z,0.65
2023-02-24T05:26:32.108Z,0.61
2023-02-24T05:31:30.886Z,0.70
2023-02-24T05:36:29.870Z,0.59
2023-02-24T05:41:32.536Z,0.60
2023-02-24T05:46:33.893Z,0.75
2023-02-24T05:51:35.701Z,0.67
2023-02-24T05:56:34.270Z,0.67
2023-02-24T06:01:37.124Z,0.59
2023-02-24T06:06:39.056Z,0.57
2023-02-24T06:11:36.457Z,0.59
2023-02-24T06:16:34.993Z,0.68
2023-02-24T06:21:31.870Z,0.66
2023-02-24T06:26:33.704Z,0.72
2023-02-24T06:31:30.184Z,0.75
2023-02-24T06:36:26.601Z,0.78
2023-02-24T06:41:23.257Z,0.73
2023-02-24T06:46:20.410Z,0.79
2023-02-24T06:51:17.390Z,0.83
2023-02-24T06:56:18.025Z,0.92
2023-02-24T07:01:17.856Z,0.97
2023-02-24T07:06:28.730Z,1.03
2023-02-24T07:11:25.638Z,1.08
2023-02-24T07:16:28.651Z,1.09
2023-02-24T07:21:30.680Z,1.12
2023-02-24T07:26:27.800Z,1.14
2023-02-24T07:31:26.106Z,1.19
2023-02-24T07:36:23.732Z,1.22
2023-02-24T07:41:23.320Z,1.24
2023-02-24T07:46:24.592Z,1.30
2023-02-24T07:51:24.200Z,1.34
2023-02-24T07:56:26.887Z,1.35
2023-02-24T08:01:23.553Z,1.41
2023-02-24T08:06:37.664Z,1.47
2023-02-24T08:11:36.908Z,1.55
2023-02-24T08:16:42.033Z,1.60
2023-02-24T08:21:47.281Z,1.65
2023-02-24T08:27:03.707Z,1.69
2023-02-24T08:32:00.353Z,1.74
2023-02-24T08:36:57.136Z,1.77
2023-02-24T08:41:54.915Z,1.83
2023-02-24T08:46:52.307Z,1.82
2023-02-24T08:51:49.094Z,1.85
2023-02-24T08:56:55.989Z,1.87
2023-02-24T09:02:05.099Z,1.80
2023-02-24T09:07:11.684Z,1.71
2023-02-24T09:12:10.460Z,1.54
2023-02-24T09:17:13.976Z,1.46
2023-02-24T09:22:29.725Z,1.32
2023-02-24T09:27:29.278Z,1.27
2023-02-24T09:32:28.953Z,1.18
2023-02-24T09:37:25.468Z,1.11
2023-02-24T09:42:33.204Z,1.03
2023-02-24T09:47:40.504Z,1.03
2023-02-24T09:52:43.051Z,0.99
2023-02-24T09:58:07.994Z,0.94
2023-02-24T10:03:34.702Z,1.06
2023-02-24T10:08:38.755Z,1.04
2023-02-24T10:13:48.455Z,1.03
2023-02-24T10:19:14.911Z,1.12
2023-02-24T10:24:16.102Z,1.02
2023-02-24T10:29:29.453Z,1.14
2023-02-24T10:34:31.753Z,1.16
2023-02-24T10:39:33.265Z,1.05
2023-02-24T10:44:36.549Z,1.14
2023-02-24T10:49:42.874Z,1.09
2023-02-24T10:55:05.053Z,1.18
2023-02-24T11:00:20.381Z,1.25
2023-02-24T11:05:27.338Z,1.23
2023-02-24T11:10:32.645Z,1.23
2023-02-24T11:15:57.298Z,1.23
2023-02-24T11:20:59.886Z,1.20
2023-02-24T11:26:04.626Z,1.22
2023-02-24T11:31:09.130Z,1.27
2023-02-24T11:36:29.855Z,1.24
2023-02-24T11:41:33.769Z,1.30
2023-02-24T11:46:39.437Z,1.29
2023-02-24T11:51:37.569Z,1.27
2023-02-24T11:56:39.977Z,1.23
2023-02-24T12:01:56.851Z,1.23
2023-02-24T12:07:06.727Z,1.18
2023-02-24T12:12:13.779Z,1.14
2023-02-24T12:17:35.017Z,1.17
2023-02-24T12:22:46.006Z,1.14
2023-02-24T12:28:05.314Z,1.10
2023-02-24T12:33:16.458Z,1.14
2023-02-24T12:38:44.340Z,1.11
2023-02-24T12:44:02.121Z,0.98
2023-02-24T12:49:13.764Z,0.95
2023-02-24T12:54:27.093Z,0.88
2023-02-24T12:59:28.683Z,0.79
2023-02-24T13:04:34.449Z,0.78
2023-02-24T13:09:45.809Z,0.84
2023-02-24T13:14:43.436Z,0.86
2023-02-24T13:19:41.474Z,0.89
2023-02-24T13:24:40.367Z,0.91
2023-02-24T13:29:44.441Z,1.03
2023-02-24T13:34:45.264Z,1.11
2023-02-24T13:39:41.715Z,1.22
2023-02-24T13:44:48.956Z,1.37
2023-02-24T13:50:06.507Z,1.42
2023-02-24T13:55:30.309Z,1.52
2023-02-24T14:01:05.060Z,1.58
2023-02-24T14:06:02.600Z,1.68
2023-02-24T14:11:00.518Z,1.75
2023-02-24T14:15:59.554Z,1.82
2023-02-24T14:20:57.971Z,1.92
2023-02-24T14:25:58.250Z,1.95
2023-02-24T14:30:58.552Z,2.00
2023-02-24T14:35:55.842Z,2.10
2023-02-24T14:40:52.260Z,2.14
2023-02-24T14:45:50.975Z,2.18
2023-02-24T14:50:47.540Z,2.21
2023-02-24T14:55:48.475Z,2.20
2023-02-24T15:00:56.449Z,2.27
2023-02-24T15:05:55.512Z,2.33
2023-02-24T15:10:52.167Z,2.36
2023-02-24T15:15:48.748Z,2.39
2023-02-24T15:20:45.375Z,2.46
2023-02-24T15:25:45.748Z,2.50
2023-02-24T15:30:58.456Z,2.54
2023-02-24T15:35:58.940Z,2.55
2023-02-24T15:40:59.084Z,2.61
2023-02-24T15:45:55.495Z,2.65
2023-02-24T15:50:51.953Z,2.68
2023-02-24T15:55:49.553Z,2.71
2023-02-24T16:00:46.036Z,2.75
2023-02-24T16:05:42.568Z,2.79
2023-02-24T16:10:40.200Z,2.78
2023-02-24T16:15:42.753Z,2.80
2023-02-24T16:20:40.054Z,2.86
2023-02-24T16:25:40.873Z,2.89
2023-02-24T16:30:37.338Z,2.88
2023-02-24T16:35:33.762Z,2.89
2023-02-24T16:40:38.482Z,2.95
2023-02-24T16:45:38.157Z,2.98
2023-02-24T16:50:40.426Z,3.03
2023-02-24T16:55:37.165Z,3.10
2023-02-24T17:00:33.572Z,3.14
2023-02-24T17:05:30.010Z,3.14
2023-02-24T17:10:26.409Z,3.15
2023-02-24T17:15:24.619Z,3.18
2023-02-24T17:20:21.059Z,3.22
2023-02-24T17:25:22.019Z,3.26
2023-02-24T17:30:22.636Z,3.29
2023-02-24T17:35:19.377Z,3.30
2023-02-24T17:40:16.574Z,3.19
2023-02-24T17:45:14.094Z,3.06
2023-02-24T17:50:12.343Z,2.93
2023-02-24T17:55:09.761Z,2.88
2023-02-24T18:00:07.398Z,2.83
2023-02-24T18:05:04.159Z,2.79
2023-02-24T18:10:00.728Z,2.80
2023-02-24T18:15:07.938Z,2.78
2023-02-24T18:20:06.699Z,2.73
2023-02-24T18:25:03.514Z,2.72
2023-02-24T18:29:59.912Z,2.67
2023-02-24T18:34:56.388Z,2.63
2023-02-24T18:39:53.304Z,2.64
2023-02-24T18:44:49.726Z,2.63
2023-02-24T18:49:46.139Z,2.63
2023-02-24T18:54:42.484Z,2.58
2023-02-24T18:59:38.872Z,2.54
2023-02-24T19:04:35.258Z,2.57
2023-02-24T19:09:31.616Z,2.62
2023-02-24T19:14:28.075Z,2.84
2023-02-24T19:19:24.470Z,2.69
2023-02-24T19:24:22.040Z,2.75
2023-02-24T19:29:19.872Z,2.80
2023-02-24T19:34:16.302Z,2.62
2023-02-24T19:39:15.188Z,2.57
2023-02-24T19:44:11.753Z,2.55
2023-02-24T19:49:08.322Z,2.54
2023-02-24T19:54:06.215Z,2.43
2023-02-24T19:59:05.673Z,2.45
2023-02-24T20:04:03.394Z,2.49
2023-02-24T20:09:00.817Z,2.57
2023-02-24T20:13:57.275Z,2.80
2023-02-24T20:18:55.258Z,3.06
2023-02-24T20:23:52.286Z,2.78
2023-02-24T20:28:48.930Z,2.72
2023-02-24T20:33:47.414Z,2.69
2023-02-24T20:38:43.830Z,2.62
2023-02-24T20:43:40.303Z,2.60
2023-02-24T20:48:36.669Z,2.58
2023-02-24T20:53:36.434Z,2.56
2023-02-24T20:58:36.439Z,2.53
2023-02-24T21:03:32.904Z,2.52
2023-02-24T21:08:29.327Z,2.49
2023-02-24T21:13:25.872Z,2.46
2023-02-24T21:18:23.005Z,2.39
2023-02-24T21:23:19.792Z,2.36
2023-02-24T21:28:16.188Z,2.32
2023-02-24T21:33:13.024Z,2.26
2023-02-24T21:38:09.909Z,2.25
2023-02-24T21:43:06.260Z,2.24
2023-02-24T21:48:02.631Z,2.24
2023-02-24T21:53:01.020Z,2.25
2023-02-24T21:57:57.467Z,2.24
2023-02-24T22:02:55.407Z,2.22
2023-02-24T22:07:52.461Z,2.23
2023-02-24T22:12:50.799Z,2.22
2023-02-24T22:17:47.497Z,2.24
2023-02-24T22:22:44.059Z,2.24
2023-02-24T22:27:40.509Z,2.23
2023-02-24T22:32:37.558Z,2.21
2023-02-24T22:37:34.511Z,2.20
2023-02-24T22:42:31.434Z,2.20
2023-02-24T22:47:30.117Z,2.16
2023-02-24T22:52:26.816Z,2.14
2023-02-24T22:57:23.631Z,2.12
2023-02-24T23:02:20.384Z,2.15
2023-02-24T23:07:17.036Z,2.14
2023-02-24T23:12:15.442Z,2.16
2023-02-24T23:17:13.486Z,2.12
2023-02-24T23:22:09.837Z,2.13
2023-02-24T23:27:06.301Z,2.15
2023-02-24T23:32:03.340Z,2.15
2023-02-24T23:36:59.803Z,2.17
2023-02-24T23:41:57.797Z,2.14
2023-02-24T23:46:55.019Z,2.15
2023-02-24T23:51:52.080Z,2.13
2023-02-24T23:56:48.686Z,2.13
